Henderson, Nevada Weather observations

Data are for observation ending at time listed.
 Day   Time    Ave.   Ave.  Ave.  Vector   Max.   Stn.    Total    Solar   Ave.  
  of    of     Air    Rel.  Wind   Wind    Wind   Baro.  Precip.   Rad.    Soil  
Year   Day     Temp.  Hum.  Speed  Dir.    Gust   Pres.                    Temp. 
2016   (PST)    F      %     mph   deg.    mph     mb.     in.     W/m2     F   
------------------------------------------------------------------------------
 207   18:30  105.3    14    6.2   124     15.3   932.8    0.00      77    109.0
 207   18:40  104.6    15    5.4   125     11.1   932.9    0.00      56    107.3
 207   18:50  104.1    16    4.6   126      9.3   933.0    0.00      36    105.8
 207   19:00  103.5    16    5.2   126     11.3   932.9    0.00      20    104.6
 207   19:10  103.2    16    5.4   123      9.9   933.0    0.00       5    103.6
 207   19:20  102.5    17    6.8   122     13.7   933.1    0.00       0    102.7
 207   19:30  102.0    18    5.9   123     12.0   933.1    0.00       0    101.9
 207   19:40  101.5    18    4.3   130     10.3   933.2    0.00       0    101.1
 207   19:50  100.7    18    3.9   139     10.0   933.3    0.00       0    100.1
 207   20:00  100.5    18    4.5   138     10.9   933.5    0.00       0    99.3
 207   20:10  100.6    18    3.8   138      8.3   933.6    0.00       0    98.8
 207   20:20  100.4    18    4.8   127     10.7   933.8    0.00       0    98.4
 207   20:30  100.2    18    5.0   137     10.2   933.9    0.00       0    98.2
 207   20:40  100.4    17    4.6   144     13.5   934.0    0.00       0    98.0
 207   20:50   99.6    17    3.6   157      8.0   934.0    0.00       0    97.6
 207   21:00   99.0    18    4.4   185      9.8   933.8    0.00       0    97.0
 207   21:10   98.5    18    3.4   177      8.0   933.9    0.00       0    96.4
 207   21:20   97.8    18    3.4   146      8.0   934.1    0.00       0    95.8
 207   21:30   98.1    17    3.5   152      7.5   933.9    0.00       0    95.4
 207   21:40   98.1    17    4.4   156      9.3   934.0    0.00       0    95.2
 207   21:50   97.7    17    3.2   158      8.3   933.9    0.00       0    94.9
 207   22:00   97.5    17    3.8   151      8.9   934.1    0.00       0    94.7
 207   22:10   97.2    18    3.4   159      8.1   934.1    0.00       0    94.5
 207   22:20   96.6    18    3.3   164      9.4   934.0    0.00       0    94.2
 207   22:30   96.4    19    3.5   169      8.3   934.0    0.00       0    93.8
 207   22:40   96.2    19    3.6   161      8.7   934.0    0.00       0    93.5
 207   22:50   96.0    19    4.8   157     10.2   934.1    0.00       0    93.4
 207   23:00   95.9    19    5.3   156     11.2   934.2    0.00       0    93.3
 207   23:10   95.9    20    5.9   153     12.3   934.1    0.00       0    93.4
 207   23:20   95.5    21    5.4   152     10.7   934.1    0.00       0    93.3
 207   23:30   95.4    22    6.1   154     12.1   934.1    0.00       0    93.1
 207   23:40   95.2    22    5.7   160     13.2   934.1    0.00       0    93.0
 207   23:50   95.1    22    4.6   159     11.6   934.1    0.00       0    92.9
 208    0:00   94.7    22    5.0   150     11.0   934.1    0.00       0    92.6
 208    0:10   94.3    23    4.4   148     11.1   934.0    0.00       0    92.4
 208    0:20   94.2    23    4.3   153      9.0   934.1    0.00       0    92.0
 208    0:30   94.0    23    2.8   146      8.0   934.2    0.00       0    91.7
 208    0:40   93.5    23    2.0   160      4.7   934.3    0.00       0    91.1
 208    0:50   93.1    23    2.4   148      6.6   934.3    0.00       0    90.6
 208    1:00   92.7    24    2.2   138      5.3   934.3    0.00       0    90.3
 208    1:10   92.9    24    2.9   136      7.5   934.3    0.00       0    90.0
 208    1:20   92.6    24    2.1   137      4.2   934.3    0.00       0    89.9
 208    1:30   92.2    24    2.5   136      6.4   934.4    0.00       0    89.5
 208    1:40   92.4    24    2.6   129      5.2   934.5    0.00       0    89.5
 208    1:50   92.5    24    2.9   132      5.7   934.5    0.00       0    89.6
 208    2:00   92.1    25    2.9   135      8.1   934.7    0.00       0    89.5
 208    2:10   92.0    25    2.4   142      7.1   934.6    0.00       0    89.4
 208    2:20   91.6    25    2.9   143      7.5   934.6    0.00       0    89.1
 208    2:30   91.7    25    2.9   137      5.8   934.8    0.00       0    89.0
 208    2:40   91.9    25    2.5   132      4.6   934.7    0.00       0    89.0
 208    2:50   91.6    25    2.8   129      5.7   934.7    0.00       0    88.8
 208    3:00   91.4    25    3.0   128      6.6   934.6    0.00       0    88.7
 208    3:10   91.1    25    2.3   131      4.2   934.8    0.00       0    88.4
 208    3:20   90.8    25    2.5   136      5.4   934.8    0.00       0    88.0
 208    3:30   90.2    25    2.1   142      3.9   934.8    0.00       0    87.6
 208    3:40   90.0    25    2.4   137      5.2   934.8    0.00       0    87.2
 208    3:50   89.6    25    2.1   132      4.5   934.9    0.00       0    86.9
 208    4:00   89.3    25    2.7   139      6.6   935.0    0.00       0    86.6
 208    4:10   89.6    25    2.1   148      5.1   935.1    0.00       0    86.2
 208    4:20   89.4    25    2.1   171      7.0   935.2    0.00       0    85.9
 208    4:30   88.1    26    2.1   227      4.9   935.4    0.00       0    85.3
 208    4:40   88.3    26    2.4   206      9.6   935.3    0.00       1    85.0
 208    4:50   88.8    25    1.5   212      4.6   935.5    0.00       7    84.9
 208    5:00   88.8    25    2.0   176      4.7   935.6    0.00       7    84.8
 208    5:10   88.9    25    1.8   182      5.3   935.8    0.00      18    84.8
 208    5:20   89.6    24    2.3   198      6.3   935.9    0.00      25    85.0
 208    5:30   90.8    22    2.1   188      4.2   935.9    0.00      59    85.6
 208    5:40   91.1    22    2.7   192      6.1   936.0    0.00      98    86.1
 208    5:50   91.8    22    2.4   197      5.8   936.0    0.00     130    86.9
 208    6:00   92.7    22    2.0   174      3.8   936.1    0.00     163    87.7
 208    6:10   93.9    21    1.8   154      4.2   936.2    0.00     195    89.4
 208    6:20   93.6    22    2.1   153      4.9   936.4    0.00     232    91.3
 208    6:30   93.8    22    2.4   146      5.7   936.6    0.00     267    93.2
 208    6:40   94.6    21    2.0   122      6.1   936.7    0.00     303    95.2
 208    6:50   95.1    20    2.0   126      6.1   936.8    0.00     339    96.7
 208    7:00   96.5    20    2.0   190      4.6   936.9    0.00     376    98.4
 208    7:10   95.4    20    2.9   302      5.8   936.9    0.00     411    100.0
 208    7:20   94.2    20    3.7   312      6.1   937.0    0.00     447    100.6
 208    7:30   94.9    20    2.2   320      4.9   937.0    0.00     483    101.5
 208    7:40   96.1    19    1.8   330      4.2   937.1    0.00     518    102.8
 208    7:50   97.4    19    1.3    58      3.8   937.1    0.00     553    104.1
 208    8:00   97.0    19    2.2    84      5.2   937.2    0.00     587    104.9
 208    8:10   97.8    19    1.9    82      5.1   937.1    0.00     621    105.7
 208    8:20   99.5    18    1.6    75      5.8   937.0    0.00     655    106.9
 208    8:30   98.9    19    3.4   108      6.1   937.1    0.00     687    107.6
 208    8:40   99.2    20    4.2    97      8.9   937.1    0.00     718    107.7
 208    8:50   99.5    19    4.0    98      9.1   937.0    0.00     749    108.1
 208    9:00   99.6    19    2.5    86      8.2   936.9    0.00     778    108.6
 208    9:10  100.9    18    2.3    96      7.4   936.9    0.00     805    109.8
 208    9:20  101.9    18    2.4    80      7.4   936.9    0.00     834    110.8
 208    9:30  102.2    17    3.3    85     11.5   936.9    0.00     859    111.5
 208    9:40  103.1    16    2.1    84      6.0   936.9    0.00     884    112.4
 208    9:50  102.8    16    4.4   103      9.4   936.9    0.00     906    112.9
 208   10:00  103.7    15    2.6    80      8.6   936.9    0.00     930    113.2
 208   10:10  104.0    14    3.3    81      8.9   936.7    0.00     949    113.8
 208   10:20  105.0    14    3.0   120      7.7   936.6    0.00     965    114.3
 208   10:30  105.6    14    2.1    73      7.1   936.5    0.00     982    114.8
 208   10:40  106.0    13    3.1    68      7.9   936.4    0.00     998    115.7
 208   10:50  106.0    13    4.5    96     11.9   936.2    0.00    1010    115.9
 208   11:00  106.0    13    3.3    97      9.9   936.0    0.00    1018    115.8
 208   11:10  106.2    13    5.4    99     12.8   935.9    0.00    1026    115.4
 208   11:20  107.2    13    3.0   115     10.5   935.8    0.00    1037    115.3
 208   11:30  107.6    13    3.4   105      7.7   935.7    0.00    1040    115.9
 208   11:40  107.9    13    3.3   209     10.1   935.5    0.00    1048    115.9
 208   11:50  107.4    13    6.4   104     13.7   935.3    0.00    1050    115.7
 208   12:00  107.2    13    3.2    69      6.9   935.3    0.00    1050    115.1
 208   12:10  108.0    13    3.4    91     12.3   935.1    0.00    1048    115.2
 208   12:20  109.0    13    3.2    63      8.7   935.0    0.00    1039    115.2
 208   12:30  109.9    12    1.9    92     10.0   934.8    0.00    1037    115.6
 208   12:40  109.5    12    3.6   111      9.9   934.7    0.00    1036    115.8
 208   12:50  109.5    12    2.3   232      9.1   934.7    0.00    1024    115.9
 208   13:00  109.1    12    7.0   106     12.2   934.4    0.00    1017    115.8
 208   13:10  109.6    12    2.6    75      7.6   934.3    0.00    1004    115.7
 208   13:20  110.2    12    2.6    42      6.8   934.2    0.00     988    116.4
 208   13:30  111.2    11    1.8    37      5.6   934.1    0.00     972    117.1
 208   13:40  111.8    11    2.5     7      6.3   934.0    0.00     957    118.1
 208   13:50  111.1    11    2.8     1      8.8   933.9    0.00     941    118.6
 208   14:00  110.5    11    4.1   347      7.5   933.7    0.00     925    118.7
 208   14:10  110.8    11    3.3    17      6.2   933.6    0.00     901    118.6
 208   14:20  111.3    11    2.5     7      6.1   933.4    0.00     876    118.8
 208   14:30  112.4    11    2.0     1      5.0   933.2    0.00     852    119.2
 208   14:40  111.8    11    2.1    28      5.8   933.1    0.00     824    119.7
 208   14:50  111.7    11    2.4    19      6.5   933.1    0.00     796    119.7
 208   15:00  111.7    11    1.8     9      6.1   932.9    0.00     768    119.8
 208   15:10  112.3    11    1.8   317      7.6   932.8    0.00     738    119.9
 208   15:20  111.9    11    2.2    52      7.1   932.7    0.00     704    119.9
 208   15:30  111.4    11    2.0   213      5.6   932.6    0.00     671    119.9
 208   15:40  110.3    11    2.0   248      6.2   932.4    0.00     637    119.6
 208   15:50  111.7    11    1.6   237      4.3   932.3    0.00     605    119.4
 208   16:00  112.3    10    1.9   154      4.6   932.3    0.00     567    119.3
 208   16:10  112.5    10    2.4   148      5.9   932.2    0.00     531    119.2
 208   16:20  111.1    10    4.1   116      8.4   932.1    0.00     497    118.7
 208   16:30  110.8    10    3.9   112      8.3   932.1    0.00     459    118.0
 208   16:40  110.7    10    2.2    98      5.1   932.0    0.00     422    117.4
 208   16:50  110.6    10    2.8   110      5.7   931.9    0.00     387    116.9
 208   17:00  112.5    10    1.7   229      4.6   931.8    0.00     349    116.6
 208   17:10  112.0    10    2.4   237      5.7   931.8    0.00     312    116.3
 208   17:20  111.8    10    1.6   197      4.7   931.9    0.00     275    115.8
 208   17:30  111.5    10    1.6   209      4.6   931.8    0.00     239    115.2
 208   17:40  111.0    10    1.3   268      2.8   931.8    0.00     203    114.5
 208   17:50  111.5    10    0.8   253      2.7   931.9    0.00     172    113.7
 208   18:00  110.4    10    1.7   324      4.8   931.9    0.00     141    112.7
 208   18:10  109.7    10    2.5   335      5.1   931.9    0.00     108    111.5
 208   18:20  109.0    10    0.9     6      4.2   932.0    0.00      74    110.6

Return to Henderson, Nevada graphs page.


Western Regional Climate Center,wrcc@dri.edu